sensor_id;sensor_type;location;lat;lon;timestamp;pressure;altitude;pressure_sealevel;temperature;humidity
70103;BME280;57470;50.034;15.256;2024-02-14T00:00:37;99926.63;;;1.24;93.85
70103;BME280;57470;50.034;15.256;2024-02-14T00:03:03;99937.25;;;1.54;93.93
70103;BME280;57470;50.034;15.256;2024-02-14T00:05:28;99927.13;;;1.74;92.30
70103;BME280;57470;50.034;15.256;2024-02-14T00:07:54;99924.69;;;1.68;91.91
70103;BME280;57470;50.034;15.256;2024-02-14T00:10:20;99920.31;;;1.68;91.56
70103;BME280;57470;50.034;15.256;2024-02-14T00:12:45;99926.91;;;1.49;92.26
70103;BME280;57470;50.034;15.256;2024-02-14T00:15:12;99921.41;;;1.60;91.67
70103;BME280;57470;50.034;15.256;2024-02-14T00:17:38;99932.81;;;1.57;92.73
70103;BME280;57470;50.034;15.256;2024-02-14T00:20:04;99930.25;;;1.54;92.53
70103;BME280;57470;50.034;15.256;2024-02-14T00:22:30;99936.44;;;1.52;93.28
70103;BME280;57470;50.034;15.256;2024-02-14T00:24:56;99927.84;;;1.45;92.60
70103;BME280;57470;50.034;15.256;2024-02-14T00:27:21;99940.41;;;1.68;92.34
70103;BME280;57470;50.034;15.256;2024-02-14T00:29:46;99935.13;;;1.69;91.36
70103;BME280;57470;50.034;15.256;2024-02-14T00:32:13;99946.72;;;1.61;90.51
70103;BME280;57470;50.034;15.256;2024-02-14T00:34:38;99952.97;;;1.54;92.41
70103;BME280;57470;50.034;15.256;2024-02-14T00:37:04;99947.19;;;1.41;90.80
70103;BME280;57470;50.034;15.256;2024-02-14T00:39:29;99948.06;;;1.41;92.05
70103;BME280;57470;50.034;15.256;2024-02-14T00:41:55;99954.09;;;1.43;91.98
70103;BME280;57470;50.034;15.256;2024-02-14T00:44:21;99956.91;;;1.36;92.43
70103;BME280;57470;50.034;15.256;2024-02-14T00:46:47;99956.97;;;0.96;94.54
70103;BME280;57470;50.034;15.256;2024-02-14T00:49:13;99950.16;;;1.26;94.10
70103;BME280;57470;50.034;15.256;2024-02-14T00:51:39;99967.13;;;1.46;94.08
70103;BME280;57470;50.034;15.256;2024-02-14T00:54:05;99959.47;;;1.39;92.78
70103;BME280;57470;50.034;15.256;2024-02-14T00:56:30;99951.97;;;1.24;92.86
70103;BME280;57470;50.034;15.256;2024-02-14T00:58:56;99959.22;;;1.49;93.07
70103;BME280;57470;50.034;15.256;2024-02-14T01:01:22;99959.34;;;1.43;93.85
70103;BME280;57470;50.034;15.256;2024-02-14T01:03:47;99963.38;;;1.58;92.82
70103;BME280;57470;50.034;15.256;2024-02-14T01:06:13;99964.56;;;1.45;92.60
70103;BME280;57470;50.034;15.256;2024-02-14T01:08:39;99958.28;;;1.52;91.72
70103;BME280;57470;50.034;15.256;2024-02-14T01:11:06;99960.28;;;1.41;92.57
70103;BME280;57470;50.034;15.256;2024-02-14T01:13:32;99959.28;;;1.46;92.90
70103;BME280;57470;50.034;15.256;2024-02-14T01:15:57;99949.06;;;1.34;92.21
70103;BME280;57470;50.034;15.256;2024-02-14T01:18:22;99954.25;;;1.37;92.32
70103;BME280;57470;50.034;15.256;2024-02-14T01:20:48;99956.44;;;1.56;93.21
70103;BME280;57470;50.034;15.256;2024-02-14T01:23:13;99960.75;;;1.58;92.08
70103;BME280;57470;50.034;15.256;2024-02-14T01:25:39;99949.94;;;1.35;91.69
70103;BME280;57470;50.034;15.256;2024-02-14T01:28:04;99952.34;;;1.44;92.30
70103;BME280;57470;50.034;15.256;2024-02-14T01:30:30;99953.09;;;1.49;91.96
70103;BME280;57470;50.034;15.256;2024-02-14T01:32:55;99954.06;;;1.45;92.96
70103;BME280;57470;50.034;15.256;2024-02-14T01:35:21;99958.28;;;1.52;92.42
70103;BME280;57470;50.034;15.256;2024-02-14T01:37:46;99947.72;;;1.55;91.75
70103;BME280;57470;50.034;15.256;2024-02-14T01:40:12;99952.19;;;1.52;92.07
70103;BME280;57470;50.034;15.256;2024-02-14T01:42:37;99951.16;;;1.57;92.13
70103;BME280;57470;50.034;15.256;2024-02-14T01:45:03;99946.13;;;1.48;92.35
70103;BME280;57470;50.034;15.256;2024-02-14T01:47:29;99955.72;;;1.49;93.57
70103;BME280;57470;50.034;15.256;2024-02-14T01:49:56;99950.81;;;1.71;92.57
70103;BME280;57470;50.034;15.256;2024-02-14T01:52:22;99947.69;;;1.57;92.34
70103;BME280;57470;50.034;15.256;2024-02-14T01:54:47;99950.91;;;1.68;92.71
70103;BME280;57470;50.034;15.256;2024-02-14T01:57:13;99945.41;;;1.78;92.46
70103;BME280;57470;50.034;15.256;2024-02-14T01:59:39;99949.94;;;1.70;92.39
70103;BME280;57470;50.034;15.256;2024-02-14T02:02:05;99948.19;;;1.71;93.98
70103;BME280;57470;50.034;15.256;2024-02-14T02:04:32;99950.63;;;1.78;94.46
70103;BME280;57470;50.034;15.256;2024-02-14T02:06:59;99942.78;;;1.78;95.38
70103;BME280;57470;50.034;15.256;2024-02-14T02:09:25;99951.13;;;1.93;95.55
70103;BME280;57470;50.034;15.256;2024-02-14T02:11:53;99951.44;;;2.14;95.57
70103;BME280;57470;50.034;15.256;2024-02-14T02:14:22;99949.06;;;2.05;95.23
70103;BME280;57470;50.034;15.256;2024-02-14T02:16:49;99942.81;;;2.09;95.13
70103;BME280;57470;50.034;15.256;2024-02-14T02:19:16;99938.88;;;2.25;95.37
70103;BME280;57470;50.034;15.256;2024-02-14T02:21:43;99941.84;;;2.13;95.73
70103;BME280;57470;50.034;15.256;2024-02-14T02:24:12;99946.34;;;2.41;95.21
70103;BME280;57470;50.034;15.256;2024-02-14T02:26:39;99937.22;;;2.23;95.53
70103;BME280;57470;50.034;15.256;2024-02-14T02:29:06;99930.94;;;2.29;96.08
70103;BME280;57470;50.034;15.256;2024-02-14T02:31:32;99929.84;;;2.36;94.86
70103;BME280;57470;50.034;15.256;2024-02-14T02:34:00;99927.66;;;2.20;94.97
70103;BME280;57470;50.034;15.256;2024-02-14T02:36:27;99934.38;;;2.31;95.56
70103;BME280;57470;50.034;15.256;2024-02-14T02:38:56;99922.47;;;2.17;95.77
70103;BME280;57470;50.034;15.256;2024-02-14T02:41:28;99934.22;;;2.35;95.56
70103;BME280;57470;50.034;15.256;2024-02-14T02:43:55;99934.91;;;2.11;96.45
70103;BME280;57470;50.034;15.256;2024-02-14T02:46:21;99931.53;;;2.38;95.71
70103;BME280;57470;50.034;15.256;2024-02-14T02:48:48;99925.22;;;2.14;95.83
70103;BME280;57470;50.034;15.256;2024-02-14T02:51:18;99924.13;;;2.21;95.93
70103;BME280;57470;50.034;15.256;2024-02-14T02:53:46;99927.41;;;2.30;96.28
70103;BME280;57470;50.034;15.256;2024-02-14T02:56:13;99922.72;;;2.08;96.44
70103;BME280;57470;50.034;15.256;2024-02-14T02:58:41;99929.09;;;2.00;97.53
70103;BME280;57470;50.034;15.256;2024-02-14T03:01:08;99928.97;;;1.70;98.95
70103;BME280;57470;50.034;15.256;2024-02-14T03:03:35;99941.56;;;1.90;98.47
70103;BME280;57470;50.034;15.256;2024-02-14T03:06:09;99933.56;;;1.96;98.44
70103;BME280;57470;50.034;15.256;2024-02-14T03:08:37;99931.09;;;1.90;98.32
70103;BME280;57470;50.034;15.256;2024-02-14T03:11:06;99934.63;;;2.21;97.86
70103;BME280;57470;50.034;15.256;2024-02-14T03:13:32;99933.59;;;2.27;97.35
70103;BME280;57470;50.034;15.256;2024-02-14T03:15:58;99934.88;;;2.43;96.39
70103;BME280;57470;50.034;15.256;2024-02-14T03:18:24;99929.63;;;2.43;96.21
70103;BME280;57470;50.034;15.256;2024-02-14T03:20:50;99926.63;;;2.57;95.70
70103;BME280;57470;50.034;15.256;2024-02-14T03:23:15;99924.56;;;2.68;95.54
70103;BME280;57470;50.034;15.256;2024-02-14T03:25:41;99932.00;;;2.82;94.80
70103;BME280;57470;50.034;15.256;2024-02-14T03:28:07;99924.94;;;2.54;94.97
70103;BME280;57470;50.034;15.256;2024-02-14T03:30:36;99932.19;;;2.46;95.92
70103;BME280;57470;50.034;15.256;2024-02-14T03:33:03;99926.69;;;2.54;95.60
70103;BME280;57470;50.034;15.256;2024-02-14T03:35:28;99927.97;;;2.70;95.55
70103;BME280;57470;50.034;15.256;2024-02-14T03:37:53;99926.31;;;2.68;95.27
70103;BME280;57470;50.034;15.256;2024-02-14T03:40:19;99927.47;;;2.87;94.81
70103;BME280;57470;50.034;15.256;2024-02-14T03:42:47;99923.19;;;2.84;94.38
70103;BME280;57470;50.034;15.256;2024-02-14T03:45:13;99924.06;;;2.85;95.08
70103;BME280;57470;50.034;15.256;2024-02-14T03:47:39;99923.06;;;2.87;94.64
70103;BME280;57470;50.034;15.256;2024-02-14T03:50:10;99928.00;;;2.98;93.71
70103;BME280;57470;50.034;15.256;2024-02-14T03:52:36;99929.06;;;2.92;94.22
70103;BME280;57470;50.034;15.256;2024-02-14T03:55:02;99929.34;;;2.83;94.22
70103;BME280;57470;50.034;15.256;2024-02-14T03:57:27;99925.38;;;2.69;95.22
70103;BME280;57470;50.034;15.256;2024-02-14T04:00:00;99940.19;;;3.00;94.45
70103;BME280;57470;50.034;15.256;2024-02-14T04:02:28;99938.34;;;3.04;94.10
70103;BME280;57470;50.034;15.256;2024-02-14T04:04:53;99939.16;;;3.06;93.89
70103;BME280;57470;50.034;15.256;2024-02-14T04:07:19;99938.34;;;3.04;93.72
70103;BME280;57470;50.034;15.256;2024-02-14T04:09:44;99934.63;;;3.11;93.72
70103;BME280;57470;50.034;15.256;2024-02-14T04:12:10;99927.25;;;2.94;94.01
70103;BME280;57470;50.034;15.256;2024-02-14T04:14:36;99931.84;;;3.16;93.75
70103;BME280;57470;50.034;15.256;2024-02-14T04:17:02;99941.22;;;3.24;93.51
70103;BME280;57470;50.034;15.256;2024-02-14T04:19:27;99940.38;;;3.22;93.32
70103;BME280;57470;50.034;15.256;2024-02-14T04:21:53;99931.81;;;3.44;92.71
70103;BME280;57470;50.034;15.256;2024-02-14T04:24:19;99930.91;;;3.18;93.02
70103;BME280;57470;50.034;15.256;2024-02-14T04:26:44;99930.69;;;3.24;93.26
70103;BME280;57470;50.034;15.256;2024-02-14T04:29:09;99931.66;;;3.22;93.11
70103;BME280;57470;50.034;15.256;2024-02-14T04:31:36;99932.03;;;3.10;93.43
70103;BME280;57470;50.034;15.256;2024-02-14T04:34:01;99928.31;;;3.17;93.68
70103;BME280;57470;50.034;15.256;2024-02-14T04:36:27;99930.34;;;3.35;93.18
70103;BME280;57470;50.034;15.256;2024-02-14T04:38:55;99931.88;;;3.42;92.98
70103;BME280;57470;50.034;15.256;2024-02-14T04:41:21;99930.88;;;3.46;92.37
70103;BME280;57470;50.034;15.256;2024-02-14T04:43:46;99927.31;;;3.21;93.07
70103;BME280;57470;50.034;15.256;2024-02-14T04:46:12;99928.09;;;3.23;93.15
70103;BME280;57470;50.034;15.256;2024-02-14T04:48:38;99920.34;;;3.20;93.97
70103;BME280;57470;50.034;15.256;2024-02-14T04:51:04;99922.69;;;3.29;93.26
70103;BME280;57470;50.034;15.256;2024-02-14T04:53:30;99919.94;;;3.32;93.71
70103;BME280;57470;50.034;15.256;2024-02-14T04:55:56;99920.66;;;3.37;93.35
70103;BME280;57470;50.034;15.256;2024-02-14T04:58:22;99920.09;;;3.27;93.04
70103;BME280;57470;50.034;15.256;2024-02-14T05:00:47;99928.09;;;3.23;94.08
70103;BME280;57470;50.034;15.256;2024-02-14T05:03:13;99921.78;;;3.30;93.68
70103;BME280;57470;50.034;15.256;2024-02-14T05:05:38;99929.09;;;3.20;93.70
70103;BME280;57470;50.034;15.256;2024-02-14T05:08:04;99920.44;;;3.17;93.82
70103;BME280;57470;50.034;15.256;2024-02-14T05:10:30;99921.81;;;3.28;94.24
70103;BME280;57470;50.034;15.256;2024-02-14T05:12:59;99926.81;;;3.36;93.74
70103;BME280;57470;50.034;15.256;2024-02-14T05:15:24;99918.13;;;3.34;93.53
70103;BME280;57470;50.034;15.256;2024-02-14T05:17:50;99927.53;;;3.41;93.85
70103;BME280;57470;50.034;15.256;2024-02-14T05:20:16;99917.31;;;3.32;93.69
70103;BME280;57470;50.034;15.256;2024-02-14T05:22:42;99924.03;;;3.40;93.81
70103;BME280;57470;50.034;15.256;2024-02-14T05:25:08;99924.28;;;3.05;94.06
70103;BME280;57470;50.034;15.256;2024-02-14T05:27:34;99926.28;;;3.25;94.47
70103;BME280;57470;50.034;15.256;2024-02-14T05:30:01;99913.59;;;3.39;93.90
70103;BME280;57470;50.034;15.256;2024-02-14T05:32:31;99921.03;;;3.25;94.11
70103;BME280;57470;50.034;15.256;2024-02-14T05:34:57;99918.31;;;3.28;94.92
70103;BME280;57470;50.034;15.256;2024-02-14T05:37:22;99920.38;;;3.46;94.18
70103;BME280;57470;50.034;15.256;2024-02-14T05:39:47;99910.72;;;3.47;94.05
70103;BME280;57470;50.034;15.256;2024-02-14T05:42:13;99921.34;;;3.68;93.54
70103;BME280;57470;50.034;15.256;2024-02-14T05:44:38;99920.38;;;3.72;92.97
70103;BME280;57470;50.034;15.256;2024-02-14T05:47:05;99916.06;;;3.44;93.24
70103;BME280;57470;50.034;15.256;2024-02-14T05:49:30;99920.16;;;3.52;93.57
70103;BME280;57470;50.034;15.256;2024-02-14T05:51:56;99921.41;;;3.67;92.86
70103;BME280;57470;50.034;15.256;2024-02-14T05:54:21;99920.28;;;3.75;93.13
70103;BME280;57470;50.034;15.256;2024-02-14T05:56:46;99923.00;;;3.72;92.76
70103;BME280;57470;50.034;15.256;2024-02-14T05:59:12;99922.25;;;3.67;93.04
70103;BME280;57470;50.034;15.256;2024-02-14T06:01:38;99925.78;;;3.40;93.49
70103;BME280;57470;50.034;15.256;2024-02-14T06:04:03;99921.00;;;3.53;93.39
70103;BME280;57470;50.034;15.256;2024-02-14T06:06:29;99933.00;;;3.61;93.22
70103;BME280;57470;50.034;15.256;2024-02-14T06:08:54;99929.16;;;3.71;93.11
70103;BME280;57470;50.034;15.256;2024-02-14T06:11:20;99937.16;;;3.68;92.95
70103;BME280;57470;50.034;15.256;2024-02-14T06:13:47;99929.75;;;3.53;93.17
70103;BME280;57470;50.034;15.256;2024-02-14T06:16:12;99937.03;;;3.45;93.56
70103;BME280;57470;50.034;15.256;2024-02-14T06:18:38;99943.78;;;3.54;93.65
70103;BME280;57470;50.034;15.256;2024-02-14T06:21:05;99950.28;;;3.68;93.45
70103;BME280;57470;50.034;15.256;2024-02-14T06:23:30;99955.13;;;3.82;92.59
70103;BME280;57470;50.034;15.256;2024-02-14T06:25:56;99949.69;;;3.60;92.93
70103;BME280;57470;50.034;15.256;2024-02-14T06:28:21;99950.75;;;3.55;93.18
70103;BME280;57470;50.034;15.256;2024-02-14T06:30:47;99949.81;;;3.57;93.19
70103;BME280;57470;50.034;15.256;2024-02-14T06:33:12;99947.47;;;3.48;94.30
70103;BME280;57470;50.034;15.256;2024-02-14T06:35:37;99958.59;;;3.56;93.83
70103;BME280;57470;50.034;15.256;2024-02-14T06:38:03;99959.38;;;3.58;94.57
70103;BME280;57470;50.034;15.256;2024-02-14T06:40:29;99952.56;;;3.79;93.45
70103;BME280;57470;50.034;15.256;2024-02-14T06:42:54;99956.63;;;3.89;93.95
70103;BME280;57470;50.034;15.256;2024-02-14T06:45:20;99966.34;;;4.12;93.44
70103;BME280;57470;50.034;15.256;2024-02-14T06:47:46;99957.56;;;3.60;93.46
70103;BME280;57470;50.034;15.256;2024-02-14T06:50:11;99958.59;;;4.09;93.28
70103;BME280;57470;50.034;15.256;2024-02-14T06:52:36;99956.88;;;4.08;93.38
70103;BME280;57470;50.034;15.256;2024-02-14T06:55:02;99959.31;;;3.88;93.21
70103;BME280;57470;50.034;15.256;2024-02-14T06:57:29;99958.91;;;4.00;93.30
70103;BME280;57470;50.034;15.256;2024-02-14T06:59:54;99960.56;;;4.02;93.56
70103;BME280;57470;50.034;15.256;2024-02-14T07:02:19;99951.72;;;3.52;94.19
70103;BME280;57470;50.034;15.256;2024-02-14T07:04:46;99955.81;;;3.87;94.32
70103;BME280;57470;50.034;15.256;2024-02-14T07:07:11;99960.94;;;3.92;94.02
70103;BME280;57470;50.034;15.256;2024-02-14T07:09:37;99954.50;;;4.00;93.89
70103;BME280;57470;50.034;15.256;2024-02-14T07:12:04;99946.88;;;3.66;94.10
70103;BME280;57470;50.034;15.256;2024-02-14T07:14:29;99949.59;;;3.90;94.36
70103;BME280;57470;50.034;15.256;2024-02-14T07:16:55;99941.31;;;3.75;93.72
70103;BME280;57470;50.034;15.256;2024-02-14T07:19:20;99954.69;;;3.94;93.99
70103;BME280;57470;50.034;15.256;2024-02-14T07:21:45;99940.84;;;3.63;94.19
70103;BME280;57470;50.034;15.256;2024-02-14T07:24:11;99948.25;;;3.50;94.61
70103;BME280;57470;50.034;15.256;2024-02-14T07:26:36;99955.59;;;3.67;95.48
70103;BME280;57470;50.034;15.256;2024-02-14T07:29:02;99951.38;;;3.63;95.75
70103;BME280;57470;50.034;15.256;2024-02-14T07:31:30;99949.59;;;3.63;95.83
70103;BME280;57470;50.034;15.256;2024-02-14T07:33:58;99955.50;;;3.96;95.37
70103;BME280;57470;50.034;15.256;2024-02-14T07:36:23;99954.34;;;3.52;94.90
70103;BME280;57470;50.034;15.256;2024-02-14T07:38:49;99950.75;;;3.81;95.75
70103;BME280;57470;50.034;15.256;2024-02-14T07:41:15;99952.69;;;4.02;95.16
70103;BME280;57470;50.034;15.256;2024-02-14T07:43:40;99954.69;;;3.42;95.70
70103;BME280;57470;50.034;15.256;2024-02-14T07:46:06;99955.72;;;3.90;95.96
70103;BME280;57470;50.034;15.256;2024-02-14T07:48:32;99959.91;;;3.69;96.04
70103;BME280;57470;50.034;15.256;2024-02-14T07:50:58;99954.78;;;3.66;95.39
70103;BME280;57470;50.034;15.256;2024-02-14T07:53:25;99953.19;;;3.61;96.51
70103;BME280;57470;50.034;15.256;2024-02-14T07:55:51;99957.09;;;3.75;96.60
70103;BME280;57470;50.034;15.256;2024-02-14T07:58:16;99962.81;;;4.13;96.77
70103;BME280;57470;50.034;15.256;2024-02-14T08:00:41;99961.81;;;4.42;95.86
70103;BME280;57470;50.034;15.256;2024-02-14T08:03:07;99954.44;;;4.27;95.88
70103;BME280;57470;50.034;15.256;2024-02-14T08:05:33;99948.53;;;4.45;94.98
70103;BME280;57470;50.034;15.256;2024-02-14T08:07:59;99949.22;;;4.25;95.17
70103;BME280;57470;50.034;15.256;2024-02-14T08:10:24;99957.66;;;4.60;94.77
70103;BME280;57470;50.034;15.256;2024-02-14T08:12:49;99965.09;;;4.95;94.77
70103;BME280;57470;50.034;15.256;2024-02-14T08:15:15;99956.31;;;5.18;93.34
70103;BME280;57470;50.034;15.256;2024-02-14T08:17:40;99961.50;;;5.43;92.82
70103;BME280;57470;50.034;15.256;2024-02-14T08:20:06;99966.81;;;4.96;94.05
70103;BME280;57470;50.034;15.256;2024-02-14T08:22:32;99968.97;;;5.32;93.33
70103;BME280;57470;50.034;15.256;2024-02-14T08:24:58;99973.63;;;5.69;92.38
70103;BME280;57470;50.034;15.256;2024-02-14T08:27:23;99964.06;;;5.66;91.68
70103;BME280;57470;50.034;15.256;2024-02-14T08:29:49;99967.91;;;6.01;91.63
70103;BME280;57470;50.034;15.256;2024-02-14T08:32:14;99964.22;;;6.05;90.87
70103;BME280;57470;50.034;15.256;2024-02-14T08:34:40;99960.44;;;5.47;91.69
70103;BME280;57470;50.034;15.256;2024-02-14T08:37:05;99958.22;;;5.80;92.21
70103;BME280;57470;50.034;15.256;2024-02-14T08:39:32;99959.16;;;6.21;91.60
70103;BME280;57470;50.034;15.256;2024-02-14T08:41:57;99950.28;;;6.22;91.55
70103;BME280;57470;50.034;15.256;2024-02-14T08:44:22;99955.97;;;6.13;90.75
70103;BME280;57470;50.034;15.256;2024-02-14T08:46:48;99959.03;;;6.44;90.85
70103;BME280;57470;50.034;15.256;2024-02-14T08:49:14;99953.47;;;6.30;90.46
70103;BME280;57470;50.034;15.256;2024-02-14T08:51:39;99952.69;;;6.08;90.88
70103;BME280;57470;50.034;15.256;2024-02-14T08:54:05;99947.59;;;6.44;89.96
70103;BME280;57470;50.034;15.256;2024-02-14T08:56:34;99947.88;;;6.56;90.04
70103;BME280;57470;50.034;15.256;2024-02-14T08:59:03;99941.03;;;6.52;89.58
70103;BME280;57470;50.034;15.256;2024-02-14T09:01:30;99945.91;;;6.00;90.78
70103;BME280;57470;50.034;15.256;2024-02-14T09:03:55;99947.03;;;6.95;89.85
70103;BME280;57470;50.034;15.256;2024-02-14T09:06:21;99950.22;;;7.20;89.59
70103;BME280;57470;50.034;15.256;2024-02-14T09:08:47;99944.88;;;7.22;88.29
70103;BME280;57470;50.034;15.256;2024-02-14T09:11:13;99944.56;;;6.71;88.21
70103;BME280;57470;50.034;15.256;2024-02-14T09:13:39;99937.63;;;6.69;89.18
70103;BME280;57470;50.034;15.256;2024-02-14T09:16:08;99941.28;;;6.66;90.33
70103;BME280;57470;50.034;15.256;2024-02-14T09:18:33;99945.16;;;6.97;88.82
70103;BME280;57470;50.034;15.256;2024-02-14T09:20:58;99933.97;;;6.71;89.02
70103;BME280;57470;50.034;15.256;2024-02-14T09:23:24;99941.41;;;7.38;87.78
70103;BME280;57470;50.034;15.256;2024-02-14T09:25:49;99933.22;;;7.62;87.68
70103;BME280;57470;50.034;15.256;2024-02-14T09:28:19;99931.09;;;7.87;86.97
70103;BME280;57470;50.034;15.256;2024-02-14T09:30:45;99930.91;;;7.90;86.26
70103;BME280;57470;50.034;15.256;2024-02-14T09:33:10;99929.44;;;8.02;85.71
70103;BME280;57470;50.034;15.256;2024-02-14T09:35:36;99918.66;;;7.70;86.09
70103;BME280;57470;50.034;15.256;2024-02-14T09:38:04;99922.03;;;7.74;85.06
70103;BME280;57470;50.034;15.256;2024-02-14T09:40:29;99917.63;;;7.56;86.03
70103;BME280;57470;50.034;15.256;2024-02-14T09:42:55;99921.19;;;8.08;86.22
70103;BME280;57470;50.034;15.256;2024-02-14T09:45:26;99926.25;;;8.29;85.03
70103;BME280;57470;50.034;15.256;2024-02-14T09:47:54;99914.63;;;7.98;85.16
70103;BME280;57470;50.034;15.256;2024-02-14T09:50:20;99924.19;;;8.52;85.35
70103;BME280;57470;50.034;15.256;2024-02-14T09:52:49;99921.50;;;8.69;84.44
70103;BME280;57470;50.034;15.256;2024-02-14T09:55:15;99917.97;;;8.53;84.64
70103;BME280;57470;50.034;15.256;2024-02-14T09:57:42;99919.25;;;8.61;85.60
70103;BME280;57470;50.034;15.256;2024-02-14T10:00:11;99914.47;;;8.68;84.95
70103;BME280;57470;50.034;15.256;2024-02-14T10:02:38;99919.22;;;8.79;85.15
70103;BME280;57470;50.034;15.256;2024-02-14T10:05:04;99915.34;;;8.18;85.61
70103;BME280;57470;50.034;15.256;2024-02-14T10:07:29;99918.19;;;8.81;85.45
70103;BME280;57470;50.034;15.256;2024-02-14T10:10:05;99922.28;;;8.71;85.25
70103;BME280;57470;50.034;15.256;2024-02-14T10:12:31;99925.94;;;9.01;84.23
70103;BME280;57470;50.034;15.256;2024-02-14T10:14:56;99925.59;;;9.39;83.64
70103;BME280;57470;50.034;15.256;2024-02-14T10:17:22;99922.19;;;9.21;84.56
70103;BME280;57470;50.034;15.256;2024-02-14T10:19:57;99928.34;;;9.37;83.96
70103;BME280;57470;50.034;15.256;2024-02-14T10:22:22;99917.25;;;8.82;85.32
70103;BME280;57470;50.034;15.256;2024-02-14T10:24:48;99926.97;;;9.46;83.55
70103;BME280;57470;50.034;15.256;2024-02-14T10:27:15;99922.59;;;9.91;82.50
70103;BME280;57470;50.034;15.256;2024-02-14T10:29:40;99911.69;;;9.65;83.06
70103;BME280;57470;50.034;15.256;2024-02-14T10:32:06;99912.38;;;9.99;81.23
70103;BME280;57470;50.034;15.256;2024-02-14T10:34:33;99914.25;;;9.97;82.32
70103;BME280;57470;50.034;15.256;2024-02-14T10:36:58;99908.50;;;10.04;81.55
70103;BME280;57470;50.034;15.256;2024-02-14T10:39:26;99905.19;;;10.15;80.60
70103;BME280;57470;50.034;15.256;2024-02-14T10:41:52;99905.63;;;10.23;80.04
70103;BME280;57470;50.034;15.256;2024-02-14T10:44:17;99913.72;;;10.50;79.85
70103;BME280;57470;50.034;15.256;2024-02-14T10:46:44;99906.81;;;10.62;78.34
70103;BME280;57470;50.034;15.256;2024-02-14T10:49:12;99906.59;;;10.93;79.07
70103;BME280;57470;50.034;15.256;2024-02-14T10:51:43;99895.88;;;10.52;78.30
70103;BME280;57470;50.034;15.256;2024-02-14T10:54:13;99899.31;;;10.82;76.02
70103;BME280;57470;50.034;15.256;2024-02-14T10:56:42;99892.66;;;10.89;76.02
70103;BME280;57470;50.034;15.256;2024-02-14T10:59:11;99881.81;;;11.34;74.31
70103;BME280;57470;50.034;15.256;2024-02-14T11:01:39;99884.16;;;10.83;76.28
70103;BME280;57470;50.034;15.256;2024-02-14T11:04:06;99872.63;;;10.56;77.27
70103;BME280;57470;50.034;15.256;2024-02-14T11:06:32;99869.19;;;10.82;77.27
70103;BME280;57470;50.034;15.256;2024-02-14T11:09:03;99864.59;;;10.84;75.13
70103;BME280;57470;50.034;15.256;2024-02-14T11:11:33;99859.56;;;11.35;74.94
70103;BME280;57470;50.034;15.256;2024-02-14T11:13:58;99858.53;;;10.82;77.79
70103;BME280;57470;50.034;15.256;2024-02-14T11:16:27;99860.16;;;11.52;75.40
70103;BME280;57470;50.034;15.256;2024-02-14T11:19:05;99840.81;;;11.09;74.42
70103;BME280;57470;50.034;15.256;2024-02-14T11:21:35;99849.69;;;11.49;76.39
70103;BME280;57470;50.034;15.256;2024-02-14T11:24:05;99838.16;;;11.36;74.56
70103;BME280;57470;50.034;15.256;2024-02-14T11:27:01;99852.28;;;10.69;76.69
70103;BME280;57470;50.034;15.256;2024-02-14T11:29:29;99855.88;;;11.23;74.79
70103;BME280;57470;50.034;15.256;2024-02-14T11:31:59;99855.00;;;11.49;73.34
70103;BME280;57470;50.034;15.256;2024-02-14T11:34:25;99847.50;;;11.95;73.24
70103;BME280;57470;50.034;15.256;2024-02-14T11:36:51;99841.72;;;12.01;73.94
70103;BME280;57470;50.034;15.256;2024-02-14T11:39:17;99833.72;;;11.22;74.52
70103;BME280;57470;50.034;15.256;2024-02-14T11:41:42;99832.06;;;11.07;75.04
70103;BME280;57470;50.034;15.256;2024-02-14T11:44:08;99842.50;;;11.10;75.95
70103;BME280;57470;50.034;15.256;2024-02-14T11:46:35;99837.94;;;11.39;74.39
70103;BME280;57470;50.034;15.256;2024-02-14T11:49:04;99832.25;;;11.04;75.30
70103;BME280;57470;50.034;15.256;2024-02-14T11:51:32;99834.03;;;11.18;74.35
70103;BME280;57470;50.034;15.256;2024-02-14T11:53:59;99829.47;;;10.79;76.05
70103;BME280;57470;50.034;15.256;2024-02-14T11:56:48;99839.47;;;10.61;74.76
70103;BME280;57470;50.034;15.256;2024-02-14T11:59:14;99837.44;;;10.65;76.08
70103;BME280;57470;50.034;15.256;2024-02-14T12:01:42;99831.25;;;11.19;75.07
70103;BME280;57470;50.034;15.256;2024-02-14T12:04:10;99817.72;;;11.49;74.24
70103;BME280;57470;50.034;15.256;2024-02-14T12:06:38;99817.63;;;10.97;74.09
70103;BME280;57470;50.034;15.256;2024-02-14T12:09:06;99817.19;;;10.76;74.51
70103;BME280;57470;50.034;15.256;2024-02-14T12:11:35;99814.88;;;10.99;75.43
70103;BME280;57470;50.034;15.256;2024-02-14T12:14:08;99820.25;;;10.70;74.80
70103;BME280;57470;50.034;15.256;2024-02-14T12:16:35;99812.19;;;10.72;76.11
70103;BME280;57470;50.034;15.256;2024-02-14T12:19:22;99816.00;;;11.36;74.63
70103;BME280;57470;50.034;15.256;2024-02-14T12:21:48;99813.09;;;11.39;73.95
70103;BME280;57470;50.034;15.256;2024-02-14T12:24:14;99814.03;;;10.98;75.57
70103;BME280;57470;50.034;15.256;2024-02-14T12:26:40;99808.28;;;11.31;73.33
70103;BME280;57470;50.034;15.256;2024-02-14T12:29:07;99805.78;;;11.42;74.47
70103;BME280;57470;50.034;15.256;2024-02-14T12:31:34;99820.72;;;11.97;72.09
70103;BME280;57470;50.034;15.256;2024-02-14T12:34:00;99805.31;;;11.62;71.99
70103;BME280;57470;50.034;15.256;2024-02-14T12:36:36;99815.63;;;11.67;73.12
70103;BME280;57470;50.034;15.256;2024-02-14T12:39:02;99808.16;;;11.72;72.93
70103;BME280;57470;50.034;15.256;2024-02-14T12:41:28;99808.97;;;10.94;73.27
70103;BME280;57470;50.034;15.256;2024-02-14T12:43:57;99811.50;;;11.63;74.19
70103;BME280;57470;50.034;15.256;2024-02-14T12:46:23;99811.03;;;11.29;73.91
70103;BME280;57470;50.034;15.256;2024-02-14T12:48:48;99804.88;;;11.69;74.41
70103;BME280;57470;50.034;15.256;2024-02-14T12:51:14;99798.34;;;11.60;73.39
70103;BME280;57470;50.034;15.256;2024-02-14T12:53:40;99808.03;;;11.88;72.77